createdAt,value
2016-12-06T00:03:37.155Z,1022.19
2016-12-06T00:04:18.731Z,1022.25
2016-12-06T00:05:00.405Z,1022.26
2016-12-06T00:07:15.679Z,1022.24
2016-12-06T00:07:57.409Z,1022.21
2016-12-06T00:08:38.805Z,1022.21
2016-12-06T00:09:20.358Z,1022.2
2016-12-06T00:10:02.087Z,1022.25
2016-12-06T00:12:01.825Z,1022.23
2016-12-06T00:12:43.357Z,1022.25
2016-12-06T00:13:24.769Z,1022.24
2016-12-06T00:14:06.544Z,1022.24
2016-12-06T00:14:48.248Z,1022.25
2016-12-06T00:15:29.921Z,1022.25
2016-12-06T00:16:11.606Z,1022.24
2016-12-06T00:16:53.303Z,1022.25
2016-12-06T00:17:34.873Z,1022.25
2016-12-06T00:18:16.556Z,1022.23
2016-12-06T00:18:57.932Z,1022.23
2016-12-06T00:21:29.074Z,1022.28
2016-12-06T00:22:10.740Z,1022.29
2016-12-06T00:22:52.415Z,1022.25
2016-12-06T00:23:34.138Z,1022.27
2016-12-06T00:24:15.970Z,1022.31
2016-12-06T00:24:57.546Z,1022.32
2016-12-06T00:25:39.178Z,1022.32
2016-12-06T00:26:20.646Z,1022.31
2016-12-06T00:27:02.112Z,1022.29
2016-12-06T00:29:33.089Z,1022.29
2016-12-06T00:30:14.690Z,1022.26
2016-12-06T00:30:56.461Z,1022.26
2016-12-06T00:31:38.072Z,1022.27
2016-12-06T00:32:19.876Z,1022.21
2016-12-06T00:33:01.435Z,1022.27
2016-12-06T00:35:16.867Z,1022.25
2016-12-06T00:37:16.745Z,1022.18
2016-12-06T00:37:58.257Z,1022.22
2016-12-06T00:38:40.072Z,1022.2
2016-12-06T00:39:21.814Z,1022.19
2016-12-06T00:43:26.384Z,1022.21
2016-12-06T00:44:08.117Z,1022.24
2016-12-06T00:44:49.940Z,1022.2
2016-12-06T00:45:31.595Z,1022.23
2016-12-06T00:46:13.336Z,1022.24
2016-12-06T00:46:55.094Z,1022.22
2016-12-06T00:47:36.871Z,1022.24
2016-12-06T00:48:18.459Z,1022.26
2016-12-06T00:49:00.210Z,1022.22
2016-12-06T00:49:41.951Z,1022.27
2016-12-06T00:50:23.766Z,1022.25
2016-12-06T00:51:05.534Z,1022.28
2016-12-06T00:51:47.180Z,1022.28
2016-12-06T00:52:28.941Z,1022.29
2016-12-06T00:53:10.702Z,1022.31
2016-12-06T00:53:52.476Z,1022.31
2016-12-06T00:54:34.211Z,1022.3
2016-12-06T00:55:15.831Z,1022.32
2016-12-06T00:55:57.585Z,1022.34
2016-12-06T00:56:39.331Z,1022.31
2016-12-06T00:57:21.081Z,1022.31
2016-12-06T00:58:02.832Z,1022.33
2016-12-06T00:58:44.593Z,1022.32
2016-12-06T00:59:26.332Z,1022.34
2016-12-06T01:00:08.086Z,1022.33
2016-12-06T01:00:49.662Z,1022.32
2016-12-06T01:01:31.097Z,1022.31
2016-12-06T01:02:12.679Z,1022.32
2016-12-06T01:02:54.289Z,1022.31
2016-12-06T01:03:35.928Z,1022.3
2016-12-06T01:05:51.300Z,1022.39
2016-12-06T01:06:33.017Z,1022.38
2016-12-06T01:07:14.788Z,1022.42
2016-12-06T01:07:56.252Z,1022.43
2016-12-06T01:08:37.704Z,1022.44
2016-12-06T01:09:19.432Z,1022.45
2016-12-06T01:10:01.043Z,1022.44
2016-12-06T01:10:42.649Z,1022.44
2016-12-06T01:11:24.301Z,1022.43
2016-12-06T01:12:05.853Z,1022.47
2016-12-06T01:12:47.467Z,1022.43
2016-12-06T01:13:29.172Z,1022.41
2016-12-06T01:14:10.895Z,1022.39
2016-12-06T01:14:52.624Z,1022.38
2016-12-06T01:15:34.262Z,1022.37
2016-12-06T01:16:15.966Z,1022.37
2016-12-06T01:16:57.671Z,1022.4
2016-12-06T01:17:39.361Z,1022.34
2016-12-06T01:18:20.982Z,1022.32
2016-12-06T01:20:15.766Z,1022.35
2016-12-06T01:20:57.434Z,1022.38
2016-12-06T01:21:39.087Z,1022.36
2016-12-06T01:22:20.713Z,1022.38
2016-12-06T01:24:15.380Z,1022.42
2016-12-06T01:24:57.046Z,1022.39
2016-12-06T01:25:38.637Z,1022.4
2016-12-06T01:26:20.227Z,1022.41
2016-12-06T01:28:51.457Z,1022.46
2016-12-06T01:29:33.175Z,1022.45
2016-12-06T01:31:53.979Z,1022.46
2016-12-06T01:34:09.153Z,1022.52
2016-12-06T01:34:50.875Z,1022.54
2016-12-06T01:35:32.556Z,1022.52
2016-12-06T01:36:14.252Z,1022.59
2016-12-06T01:36:55.989Z,1022.56
2016-12-06T01:37:37.731Z,1022.56
2016-12-06T01:38:19.313Z,1022.56
2016-12-06T01:40:14.122Z,1022.53
2016-12-06T01:40:55.882Z,1022.52
2016-12-06T01:41:37.593Z,1022.56
2016-12-06T01:42:19.155Z,1022.57
2016-12-06T01:43:00.786Z,1022.59
2016-12-06T01:43:42.539Z,1022.6
2016-12-06T01:46:03.280Z,1022.62
2016-12-06T01:46:44.968Z,1022.64
2016-12-06T01:47:26.638Z,1022.66
2016-12-06T01:48:08.411Z,1022.57
2016-12-06T01:48:50.096Z,1022.65
2016-12-06T01:49:31.689Z,1022.64
2016-12-06T01:50:13.465Z,1022.64
2016-12-06T01:50:55.130Z,1022.64
2016-12-06T01:51:36.887Z,1022.66
2016-12-06T01:52:18.519Z,1022.67
2016-12-06T01:54:49.643Z,1022.7
2016-12-06T01:57:04.812Z,1022.65
2016-12-06T01:57:46.551Z,1022.74
2016-12-06T01:58:28.316Z,1022.7
2016-12-06T01:59:10.029Z,1022.68
2016-12-06T01:59:50.849Z,1022.71
2016-12-06T02:00:31.381Z,1022.72
2016-12-06T02:01:11.920Z,1022.73
2016-12-06T02:01:52.455Z,1022.77
2016-12-06T02:02:32.995Z,1022.73
2016-12-06T02:03:13.513Z,1022.73
2016-12-06T02:03:54.042Z,1022.76
2016-12-06T02:04:34.567Z,1022.75
2016-12-06T02:05:15.107Z,1022.75
2016-12-06T02:05:55.642Z,1022.73
2016-12-06T02:06:36.165Z,1022.75
2016-12-06T02:07:16.701Z,1022.76
2016-12-06T02:07:57.234Z,1022.78
2016-12-06T02:08:37.782Z,1022.72
2016-12-06T02:09:18.301Z,1022.73
2016-12-06T02:09:58.825Z,1022.74
2016-12-06T02:10:39.364Z,1022.8
2016-12-06T02:11:19.896Z,1022.81
2016-12-06T02:12:00.431Z,1022.8
2016-12-06T02:12:40.964Z,1022.8
2016-12-06T02:13:21.496Z,1022.82
2016-12-06T02:14:02.020Z,1022.79
2016-12-06T02:14:42.563Z,1022.78
2016-12-06T02:15:23.099Z,1022.82
2016-12-06T02:16:03.629Z,1022.82
2016-12-06T02:16:44.166Z,1022.8
2016-12-06T02:17:24.702Z,1022.8
2016-12-06T02:18:05.228Z,1022.77
2016-12-06T02:18:45.768Z,1022.75
2016-12-06T02:19:26.302Z,1022.79
2016-12-06T02:20:06.832Z,1022.78
2016-12-06T02:20:47.369Z,1022.76
2016-12-06T02:21:27.904Z,1022.77
2016-12-06T02:22:08.470Z,1022.82
2016-12-06T02:22:49.003Z,1022.82
2016-12-06T02:23:29.531Z,1022.8
2016-12-06T02:24:10.068Z,1022.84
2016-12-06T02:24:50.599Z,1022.82
2016-12-06T02:25:31.128Z,1022.82
2016-12-06T02:26:11.665Z,1022.82
2016-12-06T02:26:52.201Z,1022.82
2016-12-06T02:27:32.730Z,1022.79
2016-12-06T02:28:13.259Z,1022.83
2016-12-06T02:28:53.792Z,1022.82
2016-12-06T02:29:34.325Z,1022.81
2016-12-06T02:30:14.852Z,1022.83
2016-12-06T02:30:55.383Z,1022.81
2016-12-06T02:31:35.914Z,1022.85
2016-12-06T02:32:16.443Z,1022.85
2016-12-06T02:32:56.984Z,1022.82
2016-12-06T02:33:37.499Z,1022.86
2016-12-06T02:34:18.031Z,1022.86
2016-12-06T02:34:58.562Z,1022.83
2016-12-06T02:35:39.094Z,1022.83
2016-12-06T02:36:19.630Z,1022.84
2016-12-06T02:37:00.175Z,1022.88
2016-12-06T02:37:40.689Z,1022.87
2016-12-06T02:38:21.219Z,1022.88
2016-12-06T02:39:01.756Z,1022.86
2016-12-06T02:39:42.289Z,1022.82
2016-12-06T02:40:22.812Z,1022.86
2016-12-06T02:41:03.338Z,1022.87
2016-12-06T02:41:43.867Z,1022.84
2016-12-06T02:42:24.403Z,1022.84
2016-12-06T02:43:04.937Z,1022.86
2016-12-06T02:43:45.468Z,1022.87
2016-12-06T02:44:25.993Z,1022.88
2016-12-06T02:45:06.531Z,1022.88
2016-12-06T02:45:47.064Z,1022.9
2016-12-06T02:46:27.600Z,1022.89
2016-12-06T02:47:08.134Z,1022.92
2016-12-06T02:47:48.671Z,1022.89
2016-12-06T02:48:29.202Z,1022.92
2016-12-06T02:49:09.727Z,1022.94
2016-12-06T02:49:50.272Z,1022.94
2016-12-06T02:50:30.804Z,1022.94
2016-12-06T02:51:11.329Z,1022.91
2016-12-06T02:51:51.864Z,1022.91
2016-12-06T02:52:32.393Z,1022.93
2016-12-06T02:53:12.927Z,1022.92
2016-12-06T02:53:53.455Z,1022.96
2016-12-06T02:54:33.985Z,1023
2016-12-06T02:55:14.520Z,1022.96
2016-12-06T02:55:55.047Z,1022.94
2016-12-06T02:56:35.577Z,1022.92
2016-12-06T02:57:16.107Z,1022.94
2016-12-06T02:57:56.640Z,1022.92
2016-12-06T02:58:37.173Z,1022.91
2016-12-06T02:59:17.702Z,1022.92
2016-12-06T02:59:58.239Z,1022.92
2016-12-06T03:00:38.773Z,1022.91
2016-12-06T03:01:19.302Z,1022.92
2016-12-06T03:01:59.837Z,1022.89
2016-12-06T03:02:40.371Z,1022.88
2016-12-06T03:03:20.909Z,1022.87
2016-12-06T03:04:01.444Z,1022.87
2016-12-06T03:04:41.979Z,1022.86
2016-12-06T03:05:22.502Z,1022.89
2016-12-06T03:06:03.037Z,1022.87
2016-12-06T03:06:43.575Z,1022.89
2016-12-06T03:07:24.105Z,1022.87
2016-12-06T03:08:04.634Z,1022.94
2016-12-06T03:08:45.170Z,1022.92
2016-12-06T03:09:25.707Z,1022.94
2016-12-06T03:10:06.243Z,1022.93
2016-12-06T03:10:46.777Z,1022.94
2016-12-06T03:11:27.305Z,1022.95
2016-12-06T03:12:07.835Z,1022.95
2016-12-06T03:12:48.371Z,1022.97
2016-12-06T03:13:28.903Z,1022.94
2016-12-06T03:14:09.438Z,1022.98
2016-12-06T03:14:49.962Z,1022.93
2016-12-06T03:15:30.505Z,1022.94
2016-12-06T03:16:11.033Z,1022.96
2016-12-06T03:16:51.573Z,1022.94
2016-12-06T03:17:32.102Z,1022.97
2016-12-06T03:18:12.640Z,1022.92
2016-12-06T03:18:53.176Z,1022.94
2016-12-06T03:19:33.700Z,1022.89
2016-12-06T03:20:14.252Z,1022.9
2016-12-06T03:20:54.772Z,1022.9
2016-12-06T03:21:35.306Z,1022.91
2016-12-06T03:22:15.841Z,1022.9
2016-12-06T03:22:56.365Z,1022.91
2016-12-06T03:23:36.895Z,1022.97
2016-12-06T03:24:17.433Z,1022.94
2016-12-06T03:24:57.968Z,1022.9
2016-12-06T03:25:38.500Z,1022.91
2016-12-06T03:26:19.031Z,1022.96
2016-12-06T03:26:59.553Z,1022.93
2016-12-06T03:27:40.096Z,1022.96
2016-12-06T03:28:20.629Z,1022.94
2016-12-06T03:29:01.164Z,1022.94
2016-12-06T03:29:41.695Z,1022.94
2016-12-06T03:30:22.223Z,1022.96
2016-12-06T03:31:02.764Z,1022.96
2016-12-06T03:31:43.298Z,1022.93
2016-12-06T03:32:23.829Z,1022.95
2016-12-06T03:33:04.359Z,1022.94
2016-12-06T03:33:44.893Z,1022.9
2016-12-06T03:34:25.421Z,1022.93
2016-12-06T03:35:05.951Z,1022.94
2016-12-06T03:35:46.481Z,1022.92
2016-12-06T03:36:27.023Z,1022.9
2016-12-06T03:37:07.560Z,1022.9
2016-12-06T03:37:48.076Z,1022.9
2016-12-06T03:38:28.608Z,1022.95
2016-12-06T03:39:09.144Z,1022.96
2016-12-06T03:39:49.683Z,1022.93
2016-12-06T03:40:30.220Z,1022.97
2016-12-06T03:41:10.754Z,1022.97
2016-12-06T03:41:51.281Z,1022.94
2016-12-06T03:42:31.818Z,1022.95
2016-12-06T03:43:12.344Z,1022.95
2016-12-06T03:43:52.881Z,1022.95
2016-12-06T03:44:33.403Z,1022.95
2016-12-06T03:45:13.929Z,1022.98
2016-12-06T03:45:54.459Z,1022.95
2016-12-06T03:46:34.991Z,1022.91
2016-12-06T03:47:15.517Z,1022.97
2016-12-06T03:47:56.051Z,1022.95
2016-12-06T03:48:36.583Z,1023.01
2016-12-06T03:49:17.124Z,1022.93
2016-12-06T03:49:57.651Z,1022.98
2016-12-06T03:50:38.182Z,1022.96
2016-12-06T03:51:18.712Z,1022.92
2016-12-06T03:51:59.243Z,1022.95
2016-12-06T03:52:39.776Z,1022.95
2016-12-06T03:53:20.314Z,1022.95
2016-12-06T03:54:00.842Z,1022.94
2016-12-06T03:54:41.379Z,1022.9
2016-12-06T03:55:21.915Z,1022.95
2016-12-06T03:56:02.437Z,1022.95
2016-12-06T03:56:42.967Z,1022.91
2016-12-06T03:57:23.501Z,1022.94
2016-12-06T03:58:04.035Z,1022.88
2016-12-06T03:58:44.571Z,1022.91
2016-12-06T03:59:25.104Z,1022.93
2016-12-06T04:00:05.638Z,1022.93
2016-12-06T04:00:46.169Z,1023.04
2016-12-06T04:01:26.704Z,1022.9
2016-12-06T04:02:07.239Z,1022.92
2016-12-06T04:02:47.772Z,1022.86
2016-12-06T04:03:28.312Z,1022.9
2016-12-06T04:04:08.841Z,1022.87
2016-12-06T04:04:49.376Z,1022.85
2016-12-06T04:05:29.903Z,1022.88
2016-12-06T04:06:10.437Z,1022.83
2016-12-06T04:06:50.969Z,1022.85
2016-12-06T04:07:31.493Z,1022.85
2016-12-06T04:08:12.022Z,1022.86
2016-12-06T04:08:52.553Z,1022.81
2016-12-06T04:09:33.291Z,1022.77
2016-12-06T04:10:13.825Z,1022.8
2016-12-06T04:10:54.349Z,1022.82
2016-12-06T04:11:34.894Z,1022.82
2016-12-06T04:12:15.431Z,1022.8
2016-12-06T04:12:56.010Z,1022.82
2016-12-06T04:13:36.550Z,1022.81
2016-12-06T04:14:17.082Z,1022.87
2016-12-06T04:14:57.618Z,1022.89
2016-12-06T04:15:38.156Z,1022.9
2016-12-06T04:16:18.689Z,1022.95
2016-12-06T04:16:59.227Z,1022.92
2016-12-06T04:17:39.756Z,1023
2016-12-06T04:18:20.297Z,1022.97
2016-12-06T04:19:00.819Z,1022.98
2016-12-06T04:19:41.351Z,1023.02
2016-12-06T04:20:22.360Z,1023.02
2016-12-06T04:21:02.898Z,1022.99
2016-12-06T04:21:43.516Z,1022.97
2016-12-06T04:22:24.125Z,1022.98
2016-12-06T04:23:04.656Z,1023.01
2016-12-06T04:23:45.423Z,1023.03
2016-12-06T04:24:25.967Z,1023.03
2016-12-06T04:25:06.501Z,1023.03
2016-12-06T04:25:47.044Z,1023.05
2016-12-06T04:26:27.631Z,1023.03
2016-12-06T04:27:08.478Z,1023.01
2016-12-06T04:27:49.012Z,1023.05
2016-12-06T04:28:29.554Z,1023.06
2016-12-06T04:29:10.088Z,1023.09
2016-12-06T04:29:50.731Z,1023.08
2016-12-06T04:30:31.266Z,1023.11
2016-12-06T04:31:11.798Z,1023.12
2016-12-06T04:31:52.328Z,1023.09
2016-12-06T04:32:32.949Z,1023.14
2016-12-06T04:33:13.486Z,1023.11
2016-12-06T04:33:54.011Z,1023.14
2016-12-06T04:34:34.530Z,1023.13
2016-12-06T04:35:15.071Z,1023.13
2016-12-06T04:35:55.734Z,1023.1
2016-12-06T04:36:36.273Z,1023.14
2016-12-06T04:37:16.812Z,1023.11
2016-12-06T04:37:57.336Z,1023.15
2016-12-06T04:38:37.872Z,1023.14
2016-12-06T04:39:18.443Z,1023.12
2016-12-06T04:39:59.163Z,1023.08
2016-12-06T04:40:39.692Z,1023.11
2016-12-06T04:41:20.223Z,1023.1
2016-12-06T04:42:00.759Z,1023.09
2016-12-06T04:42:41.302Z,1023.06
2016-12-06T04:43:21.840Z,1023.07
2016-12-06T04:44:02.373Z,1023.09
2016-12-06T04:44:42.910Z,1023.07
2016-12-06T04:45:23.448Z,1023.08
2016-12-06T04:46:03.982Z,1023.07
2016-12-06T04:46:44.520Z,1023.08
2016-12-06T04:47:25.043Z,1023.08
2016-12-06T04:48:05.569Z,1023.11
2016-12-06T04:48:46.100Z,1023.11
2016-12-06T04:49:26.639Z,1023.06
2016-12-06T04:50:07.178Z,1023.08
2016-12-06T04:53:25.187Z,1023.15
2016-12-06T04:54:05.733Z,1023.17
2016-12-06T04:54:46.271Z,1023.17
2016-12-06T04:55:26.803Z,1023.16
2016-12-06T04:56:07.354Z,1023.15
2016-12-06T04:56:47.961Z,1023.17
2016-12-06T04:57:28.489Z,1023.18
2016-12-06T04:58:09.011Z,1023.21
2016-12-06T04:58:49.550Z,1023.21
2016-12-06T04:59:30.081Z,1023.25
2016-12-06T05:00:10.610Z,1023.24
2016-12-06T05:00:51.143Z,1023.25
2016-12-06T05:01:31.727Z,1023.25
2016-12-06T05:02:12.261Z,1023.27
2016-12-06T05:02:52.790Z,1023.29
2016-12-06T05:03:33.324Z,1023.26
2016-12-06T05:04:13.854Z,1023.3
2016-12-06T05:04:54.387Z,1023.32
2016-12-06T05:05:35.941Z,1023.29
2016-12-06T05:06:16.894Z,1023.32
2016-12-06T05:06:57.430Z,1023.3
2016-12-06T05:07:37.965Z,1023.3
2016-12-06T05:08:18.500Z,1023.32
2016-12-06T05:08:59.031Z,1023.28
2016-12-06T05:09:39.790Z,1023.31
2016-12-06T05:10:20.320Z,1023.32
2016-12-06T05:11:00.849Z,1023.3
2016-12-06T05:11:41.411Z,1023.31
2016-12-06T05:12:21.933Z,1023.37
2016-12-06T05:13:02.465Z,1023.35
2016-12-06T05:13:42.998Z,1023.39
2016-12-06T05:14:23.517Z,1023.4
2016-12-06T05:15:04.045Z,1023.42
2016-12-06T05:15:44.580Z,1023.38
2016-12-06T05:16:25.119Z,1023.4
2016-12-06T05:17:05.634Z,1023.39
2016-12-06T05:17:46.155Z,1023.38
2016-12-06T05:18:26.691Z,1023.37
2016-12-06T05:19:07.226Z,1023.41
2016-12-06T05:19:47.764Z,1023.46
2016-12-06T05:20:28.295Z,1023.44
2016-12-06T05:21:08.824Z,1023.46
2016-12-06T05:21:49.357Z,1023.46
2016-12-06T05:22:29.893Z,1023.47
2016-12-06T05:23:10.417Z,1023.52
2016-12-06T05:23:50.896Z,1023.53
2016-12-06T05:24:31.396Z,1023.53
2016-12-06T05:25:11.903Z,1023.57
2016-12-06T05:25:52.398Z,1023.61
2016-12-06T05:26:32.893Z,1023.64
2016-12-06T05:27:13.485Z,1023.58
2016-12-06T05:27:53.921Z,1023.57
2016-12-06T05:28:34.441Z,1023.6
2016-12-06T05:29:14.967Z,1023.65
2016-12-06T05:29:55.496Z,1023.61
2016-12-06T05:30:36.039Z,1023.64
2016-12-06T05:31:16.528Z,1023.65
2016-12-06T05:31:57.036Z,1023.63
2016-12-06T05:32:37.565Z,1023.66
2016-12-06T05:33:18.077Z,1023.66
2016-12-06T05:33:58.584Z,1023.64
2016-12-06T05:34:39.060Z,1023.63
2016-12-06T05:35:19.562Z,1023.65
2016-12-06T05:36:00.177Z,1023.66
2016-12-06T05:36:40.687Z,1023.63
2016-12-06T05:37:21.220Z,1023.64
2016-12-06T05:38:01.742Z,1023.66
2016-12-06T05:38:42.244Z,1023.64
2016-12-06T05:39:22.739Z,1023.64
2016-12-06T05:40:03.268Z,1023.63
2016-12-06T05:40:43.759Z,1023.62
2016-12-06T05:41:24.245Z,1023.64
2016-12-06T05:43:39.435Z,1023.67
2016-12-06T05:44:19.964Z,1023.68
2016-12-06T05:45:00.503Z,1023.68
2016-12-06T05:45:41.043Z,1023.68
2016-12-06T05:46:21.571Z,1023.68
2016-12-06T05:47:02.089Z,1023.69
2016-12-06T05:47:42.666Z,1023.72
2016-12-06T05:48:23.194Z,1023.7
2016-12-06T05:49:03.715Z,1023.69
2016-12-06T05:49:44.249Z,1023.72
2016-12-06T05:50:24.815Z,1023.72
2016-12-06T05:51:05.340Z,1023.67
2016-12-06T05:51:45.854Z,1023.75
2016-12-06T05:52:26.398Z,1023.66
2016-12-06T05:53:06.917Z,1023.68
2016-12-06T05:53:47.443Z,1023.7
2016-12-06T05:54:27.982Z,1023.67
2016-12-06T05:55:08.496Z,1023.68
2016-12-06T05:55:49.023Z,1023.69
2016-12-06T05:56:29.560Z,1023.69
2016-12-06T05:57:10.084Z,1023.71
2016-12-06T05:57:50.611Z,1023.74
2016-12-06T05:58:31.127Z,1023.69
2016-12-06T05:59:11.661Z,1023.76
2016-12-06T05:59:52.193Z,1023.85
2016-12-06T06:00:32.721Z,1023.82
2016-12-06T06:01:13.246Z,1023.79
2016-12-06T06:01:53.764Z,1023.82
2016-12-06T06:02:34.279Z,1023.86
2016-12-06T06:03:14.807Z,1023.82
2016-12-06T06:03:55.342Z,1023.87
2016-12-06T06:04:35.874Z,1023.86
2016-12-06T06:05:16.416Z,1023.88
2016-12-06T06:05:56.953Z,1023.9
2016-12-06T06:06:37.482Z,1023.91
2016-12-06T06:07:18.011Z,1023.93
2016-12-06T06:07:58.550Z,1023.92
2016-12-06T06:08:39.094Z,1023.95
2016-12-06T06:09:19.618Z,1023.98
2016-12-06T06:10:00.144Z,1023.95
2016-12-06T06:10:40.684Z,1023.91
2016-12-06T06:11:21.223Z,1023.95
2016-12-06T06:12:01.762Z,1023.92
2016-12-06T06:12:42.290Z,1023.92
2016-12-06T06:13:22.805Z,1023.92
2016-12-06T06:15:16.828Z,1023.91
2016-12-06T06:15:57.358Z,1023.93
2016-12-06T06:16:37.884Z,1023.96
2016-12-06T06:17:18.402Z,1023.92
2016-12-06T06:17:58.919Z,1023.95
2016-12-06T06:18:39.440Z,1023.91
2016-12-06T06:19:19.967Z,1023.92
2016-12-06T06:20:00.493Z,1023.92
2016-12-06T06:20:41.029Z,1023.95
2016-12-06T06:21:21.571Z,1023.95
2016-12-06T06:22:02.104Z,1023.94
2016-12-06T06:22:42.626Z,1023.93
2016-12-06T06:23:23.158Z,1023.94
2016-12-06T06:24:03.677Z,1023.95
2016-12-06T06:24:44.205Z,1023.93
2016-12-06T06:25:24.726Z,1023.94
2016-12-06T06:26:05.253Z,1023.97
2016-12-06T06:26:45.782Z,1023.94
2016-12-06T06:27:26.322Z,1024
2016-12-06T06:28:06.854Z,1024.05
2016-12-06T06:28:47.382Z,1024.01
2016-12-06T06:29:27.911Z,1024.03
2016-12-06T06:30:08.443Z,1024
2016-12-06T06:30:48.981Z,1023.99
2016-12-06T06:31:29.514Z,1024.05
2016-12-06T06:32:10.052Z,1024.05
2016-12-06T06:32:50.576Z,1024.01
2016-12-06T06:33:31.113Z,1024.02
2016-12-06T06:34:11.647Z,1024.05
2016-12-06T06:34:52.181Z,1024.02
2016-12-06T06:35:32.728Z,1024.08
2016-12-06T06:36:13.267Z,1024.07
2016-12-06T06:36:53.793Z,1024.08
2016-12-06T06:37:34.326Z,1024.12
2016-12-06T06:38:14.851Z,1024.08
2016-12-06T06:38:55.401Z,1024.12
2016-12-06T06:39:35.932Z,1024.1
2016-12-06T06:40:16.450Z,1024.15
2016-12-06T06:40:56.980Z,1024.15
2016-12-06T06:41:37.506Z,1024.17
2016-12-06T06:42:18.052Z,1024.17
2016-12-06T06:42:58.583Z,1024.17
2016-12-06T06:43:39.114Z,1024.22
2016-12-06T06:44:19.643Z,1024.21
2016-12-06T06:45:00.169Z,1024.19
2016-12-06T06:45:40.696Z,1024.19
2016-12-06T06:46:22.856Z,1024.16
2016-12-06T06:47:03.386Z,1024.17
2016-12-06T06:47:43.896Z,1024.14
2016-12-06T06:48:24.430Z,1024.17
2016-12-06T06:49:04.961Z,1024.15
2016-12-06T06:49:45.491Z,1024.14
2016-12-06T06:50:26.017Z,1024.16
2016-12-06T06:51:06.553Z,1024.14
2016-12-06T06:51:47.085Z,1024.16
2016-12-06T06:52:27.625Z,1024.15
2016-12-06T06:53:08.153Z,1024.14
2016-12-06T06:53:48.674Z,1024.15
2016-12-06T06:54:29.206Z,1024.16
2016-12-06T06:55:09.735Z,1024.15
2016-12-06T06:55:50.270Z,1024.19
2016-12-06T06:56:30.800Z,1024.18
2016-12-06T06:57:11.319Z,1024.18
2016-12-06T06:57:51.841Z,1024.17
2016-12-06T06:58:32.376Z,1024.18
2016-12-06T06:59:12.900Z,1024.16
2016-12-06T06:59:53.477Z,1024.18
2016-12-06T07:00:34.018Z,1024.17
2016-12-06T07:01:14.557Z,1024.19
2016-12-06T07:01:55.081Z,1024.21
2016-12-06T07:02:35.605Z,1024.16
2016-12-06T07:03:16.136Z,1024.19
2016-12-06T07:03:56.673Z,1024.21
2016-12-06T07:04:37.210Z,1024.19
2016-12-06T07:05:17.726Z,1024.17
2016-12-06T07:05:58.256Z,1024.18
2016-12-06T07:06:38.785Z,1024.23
2016-12-06T07:07:19.320Z,1024.23
2016-12-06T07:07:59.854Z,1024.24
2016-12-06T07:08:40.386Z,1024.26
2016-12-06T07:09:20.904Z,1024.25
2016-12-06T07:10:01.440Z,1024.26
2016-12-06T07:10:41.993Z,1024.29
2016-12-06T07:11:22.528Z,1024.27
2016-12-06T07:12:03.057Z,1024.27
2016-12-06T07:12:43.576Z,1024.33
2016-12-06T07:13:24.110Z,1024.25
2016-12-06T07:14:04.624Z,1024.32
2016-12-06T07:14:45.163Z,1024.33
2016-12-06T07:15:25.675Z,1024.37
2016-12-06T07:16:06.216Z,1024.34
2016-12-06T07:16:46.732Z,1024.36
2016-12-06T07:17:27.241Z,1024.38
2016-12-06T07:18:07.777Z,1024.42
2016-12-06T07:18:48.292Z,1024.42
2016-12-06T07:19:28.823Z,1024.44
2016-12-06T07:20:09.330Z,1024.4
2016-12-06T07:20:49.853Z,1024.4
2016-12-06T07:21:30.386Z,1024.38
2016-12-06T07:22:10.976Z,1024.42
2016-12-06T07:22:51.500Z,1024.45
2016-12-06T07:23:32.032Z,1024.46
2016-12-06T07:24:12.571Z,1024.46
2016-12-06T07:24:53.096Z,1024.54
2016-12-06T07:25:33.638Z,1024.54
2016-12-06T07:26:14.155Z,1024.54
2016-12-06T07:26:54.695Z,1024.57
2016-12-06T07:27:35.229Z,1024.53
2016-12-06T07:28:15.762Z,1024.56
2016-12-06T07:28:56.287Z,1024.57
2016-12-06T07:29:36.819Z,1024.56
2016-12-06T07:30:17.354Z,1024.56
2016-12-06T07:30:57.888Z,1024.53
2016-12-06T07:31:38.423Z,1024.57
2016-12-06T07:32:18.966Z,1024.54
2016-12-06T07:32:59.498Z,1024.55
2016-12-06T07:33:40.019Z,1024.54
2016-12-06T07:34:20.562Z,1024.55
2016-12-06T07:35:01.068Z,1024.55
2016-12-06T07:35:41.599Z,1024.57
2016-12-06T07:36:22.120Z,1024.6
2016-12-06T07:37:02.660Z,1024.59
2016-12-06T07:37:43.220Z,1024.63
2016-12-06T07:38:23.749Z,1024.61
2016-12-06T07:39:04.276Z,1024.65
2016-12-06T07:39:44.830Z,1024.66
2016-12-06T07:40:25.328Z,1024.64
2016-12-06T07:41:05.856Z,1024.68
2016-12-06T07:41:46.386Z,1024.66
2016-12-06T07:42:26.922Z,1024.67
2016-12-06T07:43:07.431Z,1024.68
2016-12-06T07:43:47.961Z,1024.71
2016-12-06T07:44:28.495Z,1024.64
2016-12-06T07:45:09.038Z,1024.65
2016-12-06T07:45:49.575Z,1024.65
2016-12-06T07:46:30.143Z,1024.69
2016-12-06T07:47:10.679Z,1024.64
2016-12-06T07:47:51.218Z,1024.67
2016-12-06T07:48:31.746Z,1024.68
2016-12-06T07:49:12.278Z,1024.71
2016-12-06T07:49:52.832Z,1024.7
2016-12-06T07:50:33.361Z,1024.71
2016-12-06T07:51:13.897Z,1024.7
2016-12-06T07:51:54.460Z,1024.68
2016-12-06T07:52:34.989Z,1024.7
2016-12-06T07:53:15.529Z,1024.73
2016-12-06T07:53:56.063Z,1024.71
2016-12-06T07:54:36.601Z,1024.69
2016-12-06T07:55:17.139Z,1024.71
2016-12-06T07:55:57.666Z,1024.7
2016-12-06T07:56:38.212Z,1024.72
2016-12-06T07:57:18.741Z,1024.75
2016-12-06T07:57:59.274Z,1024.73
2016-12-06T07:58:39.807Z,1024.72
2016-12-06T07:59:20.337Z,1024.77
2016-12-06T08:00:00.872Z,1024.75
2016-12-06T08:01:40.988Z,1024.82
2016-12-06T08:02:21.548Z,1024.81
2016-12-06T08:03:02.096Z,1024.83
2016-12-06T08:03:42.617Z,1024.88
2016-12-06T08:04:23.147Z,1024.83
2016-12-06T08:05:03.664Z,1024.84
2016-12-06T08:05:44.193Z,1024.85
2016-12-06T08:06:24.711Z,1024.82
2016-12-06T08:07:05.241Z,1024.85
2016-12-06T08:07:45.764Z,1024.86
2016-12-06T08:08:26.310Z,1024.83
2016-12-06T08:09:06.840Z,1024.79
2016-12-06T08:09:47.368Z,1024.8
2016-12-06T08:10:27.891Z,1024.79
2016-12-06T08:11:08.418Z,1024.8
2016-12-06T08:11:48.950Z,1024.82
2016-12-06T08:12:29.467Z,1024.81
2016-12-06T08:13:09.982Z,1024.8
2016-12-06T08:13:50.520Z,1024.78
2016-12-06T08:14:31.059Z,1024.75
2016-12-06T08:15:11.615Z,1024.81
2016-12-06T08:15:52.144Z,1024.8
2016-12-06T08:16:32.665Z,1024.78
2016-12-06T08:17:13.170Z,1024.78
2016-12-06T08:17:53.755Z,1024.78
2016-12-06T08:18:34.275Z,1024.78
2016-12-06T08:19:14.784Z,1024.75
2016-12-06T08:19:55.318Z,1024.76
2016-12-06T08:20:35.922Z,1024.79
2016-12-06T08:21:16.435Z,1024.81
2016-12-06T08:21:56.956Z,1024.84
2016-12-06T08:22:37.564Z,1024.83
2016-12-06T08:23:18.108Z,1024.82
2016-12-06T08:23:58.642Z,1024.84
2016-12-06T08:24:39.169Z,1024.88
2016-12-06T08:25:19.733Z,1024.87
2016-12-06T08:26:00.272Z,1024.88
2016-12-06T08:26:40.802Z,1024.89
2016-12-06T08:27:21.339Z,1024.89
2016-12-06T08:28:01.869Z,1024.89
2016-12-06T08:28:42.404Z,1024.91
2016-12-06T08:29:22.941Z,1024.9
2016-12-06T08:30:03.471Z,1024.93
2016-12-06T08:30:43.998Z,1025.01
2016-12-06T08:31:24.517Z,1024.97
2016-12-06T08:32:05.046Z,1024.98
2016-12-06T08:32:45.570Z,1025.02
2016-12-06T08:33:26.092Z,1025.06
2016-12-06T08:34:06.636Z,1025.06
2016-12-06T08:34:47.164Z,1025.09
2016-12-06T08:35:27.692Z,1025.03
2016-12-06T08:36:08.223Z,1025.07
2016-12-06T08:36:48.757Z,1025.07
2016-12-06T08:37:29.293Z,1025.09
2016-12-06T08:38:09.815Z,1025.09
2016-12-06T08:38:50.331Z,1025.1
2016-12-06T08:39:30.860Z,1025.09
2016-12-06T08:40:11.398Z,1025.1
2016-12-06T08:40:51.926Z,1025.18
2016-12-06T08:41:32.479Z,1025.16
2016-12-06T08:42:13.052Z,1025.16
2016-12-06T08:42:53.603Z,1025.09
2016-12-06T08:43:34.132Z,1025.11
2016-12-06T08:44:14.670Z,1025.16
2016-12-06T08:44:55.201Z,1025.16
2016-12-06T08:45:35.743Z,1025.11
2016-12-06T08:46:16.287Z,1025.12
2016-12-06T08:46:56.819Z,1025.14
2016-12-06T08:47:37.390Z,1025.16
2016-12-06T08:48:17.949Z,1025.16
2016-12-06T08:48:58.451Z,1025.17
2016-12-06T08:49:38.986Z,1025.18
2016-12-06T08:50:19.532Z,1025.24
2016-12-06T08:51:00.046Z,1025.21
2016-12-06T08:51:40.594Z,1025.24